GCTS/TFS METAR and TAF weather

Enter ICAO airport designator
Station Type Date Time Source
GCTS METAR 2022/11/30 23:00 UTC NOAA

GCTS 302300Z 04003KT 360V060 9999 BKN045 18/11 Q1018 NOSIG


Station Type Date Time Source
GCTS Decoded METAR 2022/11/30 23:00 UTC NOAA

Tenerife Sur, Spain (GCTS) 28-03N 016-34W 77M
Nov 30, 2022 - 06:00 PM EST / 2022.11.30 2300 UTC
Wind: from the NE (040 degrees) at 3 MPH (3 KT) (direction variable):0
Visibility: greater than 7 mile(s):0
Sky conditions: mostly cloudy
Temperature: 64 F (18 C)
Dew Point: 51 F (11 C)
Relative Humidity: 63%
Pressure (altimeter): 30.06 in. Hg (1018 hPa)
ob: GCTS 302300Z 04003KT 360V060 9999 BKN045 18/11 Q1018 NOSIG
cycle: 23

Station Type Date Time Source
GCTS TAF 2022/11/30 21:27 UTC NOAA

TAF GCTS 302000Z 3021/0121 02007KT 9999 SCT030 TX23/0114Z TN18/0106Z PROB30
TEMPO 0111/0121 20010KT

Example: see airport list